createdAt,value
2023-04-04T00:01:38.435Z,-0.70
2023-04-04T00:04:05.790Z,-0.70
2023-04-04T00:06:32.913Z,-0.70
2023-04-04T00:08:59.877Z,-0.70
2023-04-04T00:11:27.928Z,-0.70
2023-04-04T00:13:56.077Z,-0.70
2023-04-04T00:16:23.769Z,-0.80
2023-04-04T00:18:50.891Z,-0.70
2023-04-04T00:21:20.790Z,-0.80
2023-04-04T00:23:48.251Z,-0.80
2023-04-04T00:26:15.315Z,-0.70
2023-04-04T00:28:42.819Z,-0.70
2023-04-04T00:31:12.962Z,-0.80
2023-04-04T00:33:40.008Z,-0.80
2023-04-04T00:36:07.565Z,-0.90
2023-04-04T00:38:37.979Z,-0.80
2023-04-04T00:41:06.452Z,-0.90
2023-04-04T00:43:34.716Z,-0.90
2023-04-04T00:46:01.766Z,-1.00
2023-04-04T00:48:29.431Z,-0.90
2023-04-04T00:50:57.096Z,-1.00
2023-04-04T00:53:24.267Z,-1.00
2023-04-04T00:55:56.200Z,-1.00
2023-04-04T00:58:25.356Z,-1.00
2023-04-04T01:00:52.874Z,-1.00
2023-04-04T01:03:24.212Z,-1.10
2023-04-04T01:05:52.072Z,-1.10
2023-04-04T01:08:23.270Z,-1.10
2023-04-04T01:10:50.712Z,-1.10
2023-04-04T01:13:17.871Z,-1.20
2023-04-04T01:15:45.625Z,-1.10
2023-04-04T01:18:15.890Z,-1.20
2023-04-04T01:21:03.357Z,-1.20
2023-04-04T01:23:50.704Z,-1.30
2023-04-04T01:26:17.852Z,-1.30
2023-04-04T01:28:44.714Z,-1.20
2023-04-04T01:31:14.532Z,-1.20
2023-04-04T01:33:49.607Z,-1.30
2023-04-04T01:36:29.486Z,-1.30
2023-04-04T01:39:06.465Z,-1.40
2023-04-04T01:41:35.395Z,-1.40
2023-04-04T01:44:03.163Z,-1.50
2023-04-04T01:46:30.256Z,-1.40
2023-04-04T01:48:57.244Z,-1.40
2023-04-04T01:51:24.754Z,-1.40
2023-04-04T01:53:51.678Z,-1.40
2023-04-04T01:56:19.251Z,-1.50
2023-04-04T01:58:46.464Z,-1.40
2023-04-04T02:01:14.430Z,-1.40
2023-04-04T02:03:41.569Z,-1.40
2023-04-04T02:06:09.189Z,-1.50
2023-04-04T02:08:36.529Z,-1.50
2023-04-04T02:11:03.379Z,-1.40
2023-04-04T02:13:30.323Z,-1.40
2023-04-04T02:15:57.349Z,-1.50
2023-04-04T02:18:24.773Z,-1.50
2023-04-04T02:20:57.810Z,-1.50
2023-04-04T02:23:24.934Z,-1.50
2023-04-04T02:25:51.948Z,-1.60
2023-04-04T02:28:19.580Z,-1.60
2023-04-04T02:30:47.218Z,-1.60
2023-04-04T02:33:14.111Z,-1.60
2023-04-04T02:35:41.381Z,-1.70
2023-04-04T02:38:08.407Z,-1.60
2023-04-04T02:40:39.603Z,-1.70
2023-04-04T02:43:06.802Z,-1.70
2023-04-04T02:45:33.812Z,-1.80
2023-04-04T02:48:00.784Z,-1.80
2023-04-04T02:50:27.790Z,-1.80
2023-04-04T02:53:01.461Z,-1.80
2023-04-04T02:55:28.686Z,-1.90
2023-04-04T02:57:55.865Z,-1.90
2023-04-04T03:00:22.969Z,-1.80
2023-04-04T03:02:57.295Z,-1.90
2023-04-04T03:05:25.726Z,-1.80
2023-04-04T03:07:59.578Z,-1.90
2023-04-04T03:10:31.867Z,-1.90
2023-04-04T03:12:59.337Z,-1.90
2023-04-04T03:15:26.709Z,-2.00
2023-04-04T03:17:54.342Z,-2.00
2023-04-04T03:20:22.051Z,-2.00
2023-04-04T03:22:49.431Z,-2.00
2023-04-04T03:25:16.792Z,-2.00
2023-04-04T03:27:43.692Z,-2.00
2023-04-04T03:30:11.284Z,-2.00
2023-04-04T03:32:39.472Z,-2.00
2023-04-04T03:35:09.602Z,-2.00
2023-04-04T03:37:36.690Z,-2.00
2023-04-04T03:40:04.018Z,-2.00
2023-04-04T03:42:37.198Z,-2.00
2023-04-04T03:45:04.377Z,-1.90
2023-04-04T03:47:31.371Z,-2.00
2023-04-04T03:49:58.308Z,-1.90
2023-04-04T03:52:25.272Z,-2.00
2023-04-04T03:54:52.241Z,-2.00
2023-04-04T03:57:19.252Z,-2.00
2023-04-04T03:59:46.343Z,-2.00
2023-04-04T04:02:16.891Z,-2.00
2023-04-04T04:04:43.887Z,-2.00
2023-04-04T04:07:11.084Z,-2.00
2023-04-04T04:09:38.861Z,-2.10
2023-04-04T04:12:06.157Z,-2.10
2023-04-04T04:14:33.198Z,-2.10
2023-04-04T04:17:00.050Z,-2.10
2023-04-04T04:19:27.148Z,-2.10
2023-04-04T04:21:54.208Z,-2.00
2023-04-04T04:24:21.244Z,-2.00
2023-04-04T04:26:48.416Z,-2.00
2023-04-04T04:29:16.443Z,-2.00
2023-04-04T04:31:43.467Z,-2.00
2023-04-04T04:34:10.565Z,-2.00
2023-04-04T04:36:37.626Z,-2.00
2023-04-04T04:39:04.643Z,-1.90
2023-04-04T04:41:31.765Z,-1.90
2023-04-04T04:43:58.821Z,-1.90
2023-04-04T04:46:25.807Z,-2.00
2023-04-04T04:48:52.946Z,-1.90
2023-04-04T04:51:20.054Z,-1.90
2023-04-04T04:53:47.147Z,-1.80
2023-04-04T04:56:14.191Z,-1.80
2023-04-04T04:58:41.341Z,-1.80
2023-04-04T05:01:08.263Z,-1.80
2023-04-04T05:03:39.254Z,-1.90
2023-04-04T05:06:07.085Z,-1.90
2023-04-04T05:08:34.133Z,-1.80
2023-04-04T05:11:01.816Z,-1.90
2023-04-04T05:13:29.912Z,-1.90
2023-04-04T05:15:56.834Z,-1.70
2023-04-04T05:18:23.895Z,-1.70
2023-04-04T05:20:53.260Z,-1.70
2023-04-04T05:23:20.493Z,-1.70
2023-04-04T05:25:50.820Z,-1.60
2023-04-04T05:28:18.509Z,-1.50
2023-04-04T05:30:45.868Z,-1.30
2023-04-04T05:33:12.935Z,-1.30
2023-04-04T05:35:41.442Z,-1.30
2023-04-04T05:38:08.695Z,-1.20
2023-04-04T05:40:35.809Z,-1.30
2023-04-04T05:43:04.577Z,-1.20
2023-04-04T05:45:32.265Z,-1.10
2023-04-04T05:48:02.529Z,-1.10
2023-04-04T05:50:29.690Z,-1.10
2023-04-04T05:52:57.181Z,-1.10
2023-04-04T05:55:24.758Z,-1.10
2023-04-04T05:57:52.166Z,-1.00
2023-04-04T06:00:19.802Z,-0.90
2023-04-04T06:02:47.051Z,-0.80
2023-04-04T06:05:14.790Z,-0.70
2023-04-04T06:07:41.887Z,-0.10
2023-04-04T06:10:09.459Z,0.10
2023-04-04T06:12:36.566Z,0.10
2023-04-04T06:15:03.753Z,0.10
2023-04-04T06:17:30.970Z,0.30
2023-04-04T06:19:58.084Z,0.40
2023-04-04T06:22:25.275Z,0.10
2023-04-04T06:24:52.153Z,0.30
2023-04-04T06:27:19.156Z,0.20
2023-04-04T06:29:46.951Z,0.30
2023-04-04T06:32:14.093Z,0.20
2023-04-04T06:34:41.122Z,0.20
2023-04-04T06:37:08.196Z,0.20
2023-04-04T06:39:39.265Z,0.00
2023-04-04T06:42:06.635Z,0.50
2023-04-04T06:44:33.605Z,0.60
2023-04-04T06:47:00.738Z,0.10
2023-04-04T06:49:28.143Z,0.10
2023-04-04T06:51:55.286Z,0.30
2023-04-04T06:54:22.363Z,0.50
2023-04-04T06:56:49.577Z,0.40
2023-04-04T06:59:16.753Z,0.20
2023-04-04T07:01:43.970Z,0.30
2023-04-04T07:04:11.062Z,0.40
2023-04-04T07:06:38.090Z,0.40
2023-04-04T07:09:07.128Z,0.40
2023-04-04T07:11:36.128Z,0.30
2023-04-04T07:14:03.184Z,0.30
2023-04-04T07:16:31.711Z,0.30
2023-04-04T07:18:59.011Z,0.60
2023-04-04T07:21:25.909Z,0.40
2023-04-04T07:23:53.470Z,0.30
2023-04-04T07:26:20.536Z,0.30
2023-04-04T07:28:47.431Z,0.30
2023-04-04T07:31:14.970Z,0.20
2023-04-04T07:33:42.185Z,0.20
2023-04-04T07:36:10.097Z,0.40
2023-04-04T07:38:37.497Z,0.20
2023-04-04T07:41:04.815Z,0.30
2023-04-04T07:43:32.076Z,0.40
2023-04-04T07:45:59.208Z,0.30
2023-04-04T07:48:26.803Z,0.40
2023-04-04T07:50:53.745Z,0.30
2023-04-04T07:53:20.763Z,0.50
2023-04-04T07:55:47.734Z,0.80
2023-04-04T07:58:14.724Z,0.80
2023-04-04T08:00:41.730Z,0.80
2023-04-04T08:03:08.927Z,0.80
2023-04-04T08:05:36.025Z,0.90
2023-04-04T08:08:03.227Z,0.90
2023-04-04T08:10:30.268Z,1.00
2023-04-04T08:12:57.299Z,1.00
2023-04-04T08:15:24.349Z,1.00
2023-04-04T08:17:51.358Z,1.00
2023-04-04T08:20:18.721Z,1.30
2023-04-04T08:22:45.983Z,1.40
2023-04-04T08:25:13.047Z,1.40
2023-04-04T08:27:41.078Z,1.40
2023-04-04T08:30:09.426Z,1.50
2023-04-04T08:32:36.464Z,1.10
2023-04-04T08:35:03.836Z,1.50
2023-04-04T08:37:31.197Z,1.80
2023-04-04T08:39:58.194Z,1.90
2023-04-04T08:42:28.831Z,1.70
2023-04-04T08:44:59.609Z,1.80
2023-04-04T08:47:27.881Z,1.80
2023-04-04T08:49:55.132Z,2.10
2023-04-04T08:52:23.723Z,2.00
2023-04-04T08:54:52.691Z,1.50
2023-04-04T08:57:19.696Z,1.80
2023-04-04T08:59:47.921Z,1.80
2023-04-04T09:02:19.875Z,2.00
2023-04-04T09:05:02.560Z,2.20
2023-04-04T09:07:32.434Z,2.10
2023-04-04T09:09:59.924Z,1.70
2023-04-04T09:12:29.143Z,1.70
2023-04-04T09:14:57.971Z,1.80
2023-04-04T09:17:25.179Z,1.80
2023-04-04T09:19:54.272Z,1.90
2023-04-04T09:22:21.195Z,1.90
2023-04-04T09:24:48.641Z,1.60
2023-04-04T09:27:16.536Z,1.50
2023-04-04T09:29:43.615Z,1.80
2023-04-04T09:32:14.372Z,1.80
2023-04-04T09:34:43.727Z,2.00
2023-04-04T09:37:14.231Z,2.10
2023-04-04T09:39:43.571Z,2.30
2023-04-04T09:42:11.513Z,2.40
2023-04-04T09:44:38.567Z,2.40
2023-04-04T09:47:31.234Z,2.30
2023-04-04T09:50:03.939Z,2.20
2023-04-04T09:52:35.916Z,2.40
2023-04-04T09:55:05.324Z,2.40
2023-04-04T09:57:35.017Z,2.60
2023-04-04T10:00:09.867Z,2.60
2023-04-04T10:02:47.040Z,2.70
2023-04-04T10:05:14.945Z,2.60
2023-04-04T10:07:43.905Z,2.80
2023-04-04T10:10:11.349Z,3.00
2023-04-04T10:12:39.074Z,2.70
2023-04-04T10:15:06.577Z,2.70
2023-04-04T10:17:41.959Z,2.80
2023-04-04T10:20:10.399Z,3.10
2023-04-04T10:22:38.810Z,3.20
2023-04-04T10:25:07.394Z,3.20
2023-04-04T10:27:34.900Z,2.90
2023-04-04T10:30:05.514Z,3.20
2023-04-04T10:32:46.773Z,3.10
2023-04-04T10:35:14.520Z,2.90
2023-04-04T10:37:45.849Z,3.20
2023-04-04T10:40:16.797Z,3.30
2023-04-04T10:42:47.351Z,3.30
2023-04-04T10:45:21.211Z,3.60
2023-04-04T10:47:49.648Z,3.40
2023-04-04T10:50:16.833Z,3.10
2023-04-04T10:52:44.875Z,3.30
2023-04-04T10:55:13.708Z,3.40
2023-04-04T10:57:47.711Z,3.70
2023-04-04T11:00:18.869Z,4.00
2023-04-04T11:02:56.900Z,3.50
2023-04-04T11:05:37.511Z,3.40
2023-04-04T11:08:09.053Z,3.70
2023-04-04T11:10:44.811Z,3.80
2023-04-04T11:13:16.583Z,3.70
2023-04-04T11:15:59.956Z,3.70
2023-04-04T11:18:34.329Z,3.80
2023-04-04T11:21:07.648Z,3.70
2023-04-04T11:23:50.308Z,3.70
2023-04-04T11:26:27.988Z,3.70
2023-04-04T11:28:59.791Z,3.80
2023-04-04T11:31:34.981Z,3.40
2023-04-04T11:34:14.298Z,3.50
2023-04-04T11:36:45.490Z,3.70
2023-04-04T11:39:26.094Z,4.20
2023-04-04T11:41:53.059Z,3.70
2023-04-04T11:44:22.686Z,4.00
2023-04-04T11:46:56.660Z,4.20
2023-04-04T11:49:32.269Z,4.60
2023-04-04T11:51:59.409Z,4.50
2023-04-04T11:54:27.596Z,4.40
2023-04-04T11:56:54.829Z,4.00
2023-04-04T11:59:23.232Z,4.20
2023-04-04T12:01:51.009Z,4.10
2023-04-04T12:04:19.999Z,4.30
2023-04-04T12:06:52.663Z,4.30
2023-04-04T12:09:20.668Z,4.40
2023-04-04T12:11:48.282Z,4.40
2023-04-04T12:14:19.168Z,4.50
2023-04-04T12:16:48.861Z,4.70
2023-04-04T12:19:17.044Z,4.80
2023-04-04T12:21:47.118Z,4.80
2023-04-04T12:24:15.014Z,5.00
2023-04-04T12:26:44.407Z,5.00
2023-04-04T12:29:14.115Z,4.90
2023-04-04T12:31:43.814Z,4.90
2023-04-04T12:37:02.807Z,5.00
2023-04-04T12:39:31.613Z,5.00
2023-04-04T12:42:01.427Z,4.90
2023-04-04T12:44:36.223Z,4.90
2023-04-04T12:47:05.967Z,5.10
2023-04-04T12:49:41.307Z,4.80
2023-04-04T12:52:18.130Z,4.90
2023-04-04T12:54:48.727Z,4.40
2023-04-04T12:57:25.714Z,4.50
2023-04-04T12:59:55.546Z,4.50
2023-04-04T13:02:23.554Z,4.70
2023-04-04T13:04:57.891Z,4.70
2023-04-04T13:07:28.715Z,4.80
2023-04-04T13:10:04.769Z,4.90
2023-04-04T13:13:10.079Z,4.90
2023-04-04T13:15:53.112Z,4.80
2023-04-04T13:18:22.688Z,4.80
2023-04-04T13:20:50.928Z,4.70
2023-04-04T13:23:18.897Z,4.70
2023-04-04T13:25:46.155Z,4.70
2023-04-04T13:28:13.049Z,4.70
2023-04-04T13:30:49.990Z,4.70
2023-04-04T13:33:18.138Z,4.50
2023-04-04T13:35:46.682Z,4.60
2023-04-04T13:38:14.208Z,4.80
2023-04-04T13:40:41.253Z,5.10
2023-04-04T13:43:09.086Z,5.00
2023-04-04T13:45:36.299Z,5.00
2023-04-04T13:48:04.384Z,5.10
2023-04-04T13:50:33.068Z,5.10
2023-04-04T13:53:00.152Z,4.90
2023-04-04T13:55:27.838Z,4.80
2023-04-04T13:57:54.888Z,5.10
2023-04-04T14:00:22.642Z,5.20
2023-04-04T14:02:54.192Z,5.10
2023-04-04T14:05:22.799Z,5.00
2023-04-04T15:14:43.201Z,4.70
2023-04-04T15:17:31.913Z,4.70
2023-04-04T15:21:02.322Z,4.60
2023-04-04T15:26:58.892Z,4.80
2023-04-04T15:33:14.980Z,4.90
2023-04-04T15:39:25.354Z,4.80
2023-04-04T15:41:52.868Z,4.90
2023-04-04T15:44:37.705Z,4.80
2023-04-04T15:47:19.747Z,4.70
2023-04-04T15:52:55.716Z,4.60
2023-04-04T15:55:53.474Z,4.50
2023-04-04T16:09:32.107Z,4.60
2023-04-04T16:12:36.615Z,4.50
2023-04-04T16:20:14.077Z,4.50
2023-04-04T16:25:34.510Z,4.50
2023-04-04T16:28:30.195Z,4.40
2023-04-04T16:34:52.031Z,4.30
2023-04-04T16:38:04.786Z,4.30
2023-04-04T16:40:43.076Z,4.30
2023-04-04T16:47:14.574Z,4.30
2023-04-04T16:54:39.758Z,4.20
2023-04-04T17:04:27.347Z,4.20
2023-04-04T17:13:15.843Z,4.10
2023-04-04T17:15:43.440Z,4.10
2023-04-04T17:18:10.586Z,4.00
2023-04-04T17:20:38.392Z,4.10
2023-04-04T17:23:05.744Z,4.10
2023-04-04T17:25:32.739Z,4.10
2023-04-04T17:27:59.832Z,4.00
2023-04-04T17:30:28.210Z,4.00
2023-04-04T17:32:56.372Z,4.00
2023-04-04T17:35:23.501Z,4.00
2023-04-04T17:37:50.901Z,3.80
2023-04-04T17:40:18.456Z,3.80
2023-04-04T17:42:45.492Z,3.80
2023-04-04T17:45:12.525Z,3.80
2023-04-04T17:47:39.613Z,3.80
2023-04-04T17:50:07.270Z,3.70
2023-04-04T17:52:34.408Z,3.70
2023-04-04T17:55:01.348Z,3.60
2023-04-04T17:57:28.761Z,3.60
2023-04-04T17:59:55.752Z,3.60
2023-04-04T18:02:22.706Z,3.60
2023-04-04T18:04:51.575Z,3.50
2023-04-04T18:07:22.024Z,3.50
2023-04-04T18:09:49.013Z,3.50
2023-04-04T18:12:16.221Z,3.50
2023-04-04T18:14:43.160Z,3.50
2023-04-04T18:17:11.001Z,3.40
2023-04-04T18:19:38.973Z,3.40
2023-04-04T18:22:06.679Z,3.30
2023-04-04T18:24:33.801Z,3.30
2023-04-04T18:27:01.138Z,3.30
2023-04-04T18:29:30.962Z,3.20
2023-04-04T18:32:02.139Z,3.20
2023-04-04T18:34:29.416Z,3.20
2023-04-04T18:36:56.558Z,3.10
2023-04-04T18:39:23.831Z,3.00
2023-04-04T18:41:51.511Z,3.00
2023-04-04T18:44:18.644Z,2.90
2023-04-04T18:46:45.769Z,2.90
2023-04-04T18:49:12.765Z,2.90
2023-04-04T18:51:39.692Z,2.90
2023-04-04T18:54:06.941Z,2.80
2023-04-04T18:56:33.890Z,2.80
2023-04-04T18:59:00.794Z,2.70
2023-04-04T19:01:28.903Z,2.70
2023-04-04T19:03:57.036Z,2.70
2023-04-04T19:06:29.727Z,2.70
2023-04-04T19:08:58.610Z,2.60
2023-04-04T19:11:25.852Z,2.50
2023-04-04T19:13:52.936Z,2.60
2023-04-04T19:16:20.005Z,2.50
2023-04-04T19:18:46.934Z,2.50
2023-04-04T19:21:13.979Z,2.40
2023-04-04T19:23:40.993Z,2.40
2023-04-04T19:26:08.185Z,2.40
2023-04-04T19:28:35.841Z,2.40
2023-04-04T19:31:04.597Z,2.30
2023-04-04T19:33:33.225Z,2.30
2023-04-04T19:36:07.880Z,2.40
2023-04-04T19:38:44.791Z,2.20
2023-04-04T19:41:27.890Z,2.20
2023-04-04T19:43:54.808Z,2.20
2023-04-04T19:46:27.543Z,2.10
2023-04-04T19:49:06.017Z,2.10
2023-04-04T19:51:36.991Z,2.00
2023-04-04T19:54:07.677Z,2.00
2023-04-04T19:56:35.464Z,1.90
2023-04-04T19:59:05.699Z,1.90
2023-04-04T20:01:35.009Z,1.80
2023-04-04T20:04:10.117Z,1.80
2023-04-04T20:06:38.458Z,1.80
2023-04-04T20:09:14.698Z,1.70
2023-04-04T20:11:41.712Z,1.60
2023-04-04T20:14:10.043Z,1.60
2023-04-04T20:16:37.537Z,1.50
2023-04-04T20:19:08.935Z,1.50
2023-04-04T20:21:36.296Z,1.50
2023-04-04T20:24:08.156Z,1.40
2023-04-04T20:26:58.330Z,1.30
2023-04-04T20:29:32.979Z,1.20
2023-04-04T20:32:04.909Z,1.10
2023-04-04T20:34:46.304Z,1.10
2023-04-04T20:37:24.313Z,1.10
2023-04-04T20:40:04.570Z,1.00
2023-04-04T20:42:35.634Z,1.00
2023-04-04T20:45:11.719Z,1.00
2023-04-04T20:47:46.327Z,0.90
2023-04-04T20:50:16.685Z,0.90
2023-04-04T20:52:49.063Z,0.80
2023-04-04T20:55:18.765Z,0.70
2023-04-04T20:57:47.022Z,0.60
2023-04-04T21:00:46.433Z,0.60
2023-04-04T21:03:25.652Z,0.60
2023-04-04T21:05:54.652Z,0.50
2023-04-04T21:08:24.732Z,0.50
2023-04-04T21:10:53.680Z,0.50
2023-04-04T21:13:27.215Z,0.40
2023-04-04T21:16:01.679Z,0.40
2023-04-04T21:18:31.728Z,0.40
2023-04-04T21:21:16.992Z,0.40
2023-04-04T21:23:52.488Z,0.30
2023-04-04T21:26:30.763Z,0.20
2023-04-04T21:28:59.875Z,0.20
2023-04-04T21:31:33.520Z,0.20
2023-04-04T21:34:22.594Z,0.10
2023-04-04T21:36:51.566Z,0.20
2023-04-04T21:39:24.274Z,0.10
2023-04-04T21:41:59.326Z,0.10
2023-04-04T21:44:26.489Z,0.00
2023-04-04T21:46:56.330Z,0.00
2023-04-04T21:49:24.291Z,0.00
2023-04-04T21:51:51.583Z,-0.10
2023-04-04T21:54:19.658Z,-0.10
2023-04-04T21:56:47.008Z,-0.20
2023-04-04T21:59:14.006Z,-0.20
2023-04-04T22:01:41.441Z,-0.20
2023-04-04T22:04:08.619Z,-0.20
2023-04-04T22:06:36.384Z,-0.40
2023-04-04T22:09:04.360Z,-0.30
2023-04-04T22:11:34.825Z,-0.40
2023-04-04T22:14:07.429Z,-0.50
2023-04-04T22:16:39.833Z,-0.50
2023-04-04T22:19:07.815Z,-0.50
2023-04-04T22:21:37.143Z,-0.60
2023-04-04T22:24:05.764Z,-0.60
2023-04-04T22:26:33.847Z,-0.60
2023-04-04T22:29:03.393Z,-0.70
2023-04-04T22:31:31.223Z,-0.70
2023-04-04T22:33:58.301Z,-0.60
2023-04-04T22:36:25.443Z,-0.60
2023-04-04T22:38:57.902Z,-0.60
2023-04-04T22:41:27.585Z,-0.60
2023-04-04T22:43:55.104Z,-0.70
2023-04-04T22:46:22.203Z,-0.70
2023-04-04T22:48:49.297Z,-0.60
2023-04-04T22:51:16.503Z,-0.70
2023-04-04T22:53:44.541Z,-0.60
2023-04-04T22:56:11.824Z,-0.70
2023-04-04T22:58:39.159Z,-0.70
2023-04-04T23:01:06.615Z,-0.80
2023-04-04T23:03:33.878Z,-0.80
2023-04-04T23:06:00.899Z,-0.80
2023-04-04T23:08:27.791Z,-0.70
2023-04-04T23:10:54.854Z,-0.80
2023-04-04T23:13:22.447Z,-0.70
2023-04-04T23:15:49.568Z,-0.70
2023-04-04T23:18:16.550Z,-0.80
2023-04-04T23:20:43.811Z,-0.80
2023-04-04T23:23:10.944Z,-0.90
2023-04-04T23:25:37.912Z,-0.90
2023-04-04T23:28:04.873Z,-0.90
2023-04-04T23:30:32.294Z,-0.90
2023-04-04T23:32:59.332Z,-1.00
2023-04-04T23:35:26.458Z,-0.90
2023-04-04T23:37:53.467Z,-1.00
2023-04-04T23:40:20.398Z,-1.00
2023-04-04T23:42:47.365Z,-1.10
2023-04-04T23:45:14.735Z,-1.20
2023-04-04T23:47:41.851Z,-1.20
2023-04-04T23:50:09.243Z,-1.20
2023-04-04T23:52:37.472Z,-1.20
2023-04-04T23:55:05.135Z,-1.20
2023-04-04T23:57:32.128Z,-1.10
2023-04-04T23:59:59.075Z,-1.10
